Time;durP1;ratioP1;P1;durP2;ratioP2;P2;SDS_P1;SDS_P2;PMS_P1;PMS_P2;Temp;Humidity;BMP_temperature;BMP_pressure;BME280_temperature;BME280_humidity;BME280_pressure;Samples;Min_cycle;Max_cycle;Signal;HPM_P1;HPM_P2
2023/01/08 00:01:44;;;;;;;4.43;2.30;;;13.00;99.90;;;;;;5049270;28;20199;-32
2023/01/08 00:04:12;;;;;;;3.30;2.40;;;13.00;99.90;;;;;;5048767;28;20224;-33
2023/01/08 00:06:41;;;;;;;4.07;2.17;;;12.90;99.90;;;;;;5048614;28;20204;-32
2023/01/08 00:09:14;;;;;;;6.17;2.77;;;12.90;99.90;;;;;;5048605;28;20217;-32
2023/01/08 00:11:43;;;;;;;4.93;2.63;;;12.90;99.90;;;;;;5048598;28;20200;-32
2023/01/08 00:14:12;;;;;;;4.00;2.40;;;13.00;99.90;;;;;;5048131;28;20289;-32
2023/01/08 00:16:50;;;;;;;4.07;2.53;;;13.00;99.90;;;;;;5048331;28;20208;-32
2023/01/08 00:19:20;;;;;;;5.60;2.93;;;13.00;99.90;;;;;;5046854;28;20751;-32
2023/01/08 00:21:48;;;;;;;5.33;2.77;;;13.00;99.90;;;;;;5047771;28;20208;-32
2023/01/08 00:24:15;;;;;;;4.40;2.50;;;13.00;99.90;;;;;;5046534;28;20299;-32
2023/01/08 00:26:42;;;;;;;3.37;2.00;;;13.00;99.90;;;;;;5047909;28;20283;-32
2023/01/08 00:29:09;;;;;;;8.97;2.43;;;13.00;99.90;;;;;;5048477;28;20269;-32
2023/01/08 00:31:39;;;;;;;4.63;2.90;;;13.00;99.90;;;;;;5047856;28;20406;-32
2023/01/08 00:34:06;;;;;;;3.17;2.50;;;13.00;99.90;;;;;;5048008;28;20585;-32
2023/01/08 00:36:35;;;;;;;5.50;2.57;;;13.00;99.90;;;;;;5047473;28;20214;-32
2023/01/08 00:39:03;;;;;;;8.87;3.07;;;13.00;99.90;;;;;;5047704;28;20699;-33
2023/01/08 00:41:30;;;;;;;4.47;2.57;;;13.00;99.90;;;;;;5047499;28;20214;-32
2023/01/08 00:43:59;;;;;;;3.17;2.40;;;13.00;99.90;;;;;;5047931;28;20291;-32
2023/01/08 00:46:29;;;;;;;5.37;2.47;;;13.00;99.90;;;;;;5047358;28;20771;-32
2023/01/08 00:48:58;;;;;;;4.27;2.90;;;13.00;99.90;;;;;;5047449;28;20200;-32
2023/01/08 00:51:28;;;;;;;5.20;2.53;;;13.00;99.90;;;;;;5047258;28;20331;-32
2023/01/08 00:53:58;;;;;;;6.93;3.10;;;13.00;99.90;;;;;;5047698;28;20247;-32
2023/01/08 00:56:29;;;;;;;3.87;2.57;;;13.00;99.90;;;;;;5048122;28;20290;-32
2023/01/08 00:58:57;;;;;;;3.50;2.20;;;13.00;99.90;;;;;;5047552;28;20686;-32
2023/01/08 01:01:28;;;;;;;6.27;2.70;;;13.00;99.90;;;;;;5048107;28;20200;-32
2023/01/08 01:03:58;;;;;;;2.67;2.10;;;13.00;99.90;;;;;;5045999;28;20199;-32
2023/01/08 01:06:25;;;;;;;1.93;1.10;;;13.00;99.90;;;;;;5047329;28;20212;-32
2023/01/08 01:08:57;;;;;;;2.30;0.80;;;13.10;99.90;;;;;;5047555;28;20235;-32
2023/01/08 01:11:27;;;;;;;1.33;0.60;;;13.10;99.90;;;;;;5047176;28;20331;-33
2023/01/08 01:13:57;;;;;;;5.27;1.03;;;13.00;99.90;;;;;;5047047;28;20733;-32
2023/01/08 01:16:25;;;;;;;1.77;0.50;;;13.00;99.90;;;;;;5045776;28;20223;-33
2023/01/08 01:18:56;;;;;;;1.57;0.60;;;12.90;99.90;;;;;;5046673;28;20322;-32
2023/01/08 01:21:28;;;;;;;2.40;0.60;;;12.80;99.90;;;;;;5046868;28;20199;-32
2023/01/08 01:23:59;;;;;;;2.40;0.70;;;12.80;99.90;;;;;;5046987;28;20255;-32
2023/01/08 01:26:27;;;;;;;4.27;0.97;;;12.70;99.90;;;;;;5046616;28;20200;-34
2023/01/08 01:28:56;;;;;;;3.70;0.70;;;12.60;99.90;;;;;;5047163;28;20207;-34
2023/01/08 01:31:24;;;;;;;3.83;1.20;;;12.50;99.90;;;;;;5047172;28;20222;-34
2023/01/08 01:33:52;;;;;;;4.23;1.03;;;12.40;99.90;;;;;;5046633;28;20196;-32
2023/01/08 01:36:23;;;;;;;3.50;0.50;;;12.40;99.90;;;;;;5047105;28;20726;-33
2023/01/08 01:38:53;;;;;;;3.17;0.90;;;12.40;99.90;;;;;;5046579;28;20220;-33
2023/01/08 01:41:35;;;;;;;3.27;0.70;;;12.30;99.90;;;;;;5046847;28;20211;-33
2023/01/08 01:44:53;;;;;;;3.13;0.90;;;12.20;99.90;;;;;;5046274;28;20212;-32
2023/01/08 01:47:38;;;;;;;2.43;0.80;;;12.20;99.90;;;;;;5055035;28;20618;-32
2023/01/08 01:50:13;;;;;;;2.33;0.73;;;12.10;99.90;;;;;;5045281;28;20222;-33
2023/01/08 01:53:19;;;;;;;2.47;1.00;;;12.00;99.90;;;;;;5046293;28;20730;-33
2023/01/08 01:55:47;;;;;;;2.97;0.80;;;12.00;99.90;;;;;;5046020;28;20299;-34
2023/01/08 01:58:28;;;;;;;2.87;0.87;;;11.90;99.90;;;;;;5050179;28;20207;-33
2023/01/08 02:00:57;;;;;;;2.10;0.70;;;11.90;99.90;;;;;;5055306;28;20266;-33
2023/01/08 02:03:32;;;;;;;3.20;0.87;;;11.90;99.90;;;;;;5046156;28;20575;-33
2023/01/08 02:06:07;;;;;;;2.53;0.80;;;11.90;99.90;;;;;;5045965;28;20706;-33
2023/01/08 02:08:57;;;;;;;6.97;1.20;;;11.80;99.90;;;;;;5045999;28;20568;-33
2023/01/08 02:11:34;;;;;;;2.30;0.87;;;11.80;99.90;;;;;;5045948;28;20212;-33
2023/01/08 02:14:10;;;;;;;2.77;0.97;;;11.70;99.90;;;;;;5045921;28;20367;-33
2023/01/08 02:17:15;;;;;;;5.30;1.07;;;11.70;99.90;;;;;;5046623;28;20211;-32
2023/01/08 02:19:50;;;;;;;2.30;0.70;;;11.70;99.90;;;;;;5077345;28;20210;-32
2023/01/08 02:22:32;;;;;;;1.97;1.00;;;11.60;99.90;;;;;;5060938;28;20269;-32
2023/01/08 02:25:17;;;;;;;4.47;1.00;;;11.60;99.90;;;;;;5045683;28;20204;-33
2023/01/08 02:27:52;;;;;;;4.83;0.90;;;11.60;99.90;;;;;;5045920;28;20208;-32
2023/01/08 02:30:21;;;;;;;2.67;0.90;;;11.60;99.90;;;;;;5044767;28;20678;-33
2023/01/08 02:32:49;;;;;;;2.83;0.93;;;11.60;99.90;;;;;;5045874;28;20258;-33
2023/01/08 02:35:16;;;;;;;3.37;1.17;;;11.60;99.90;;;;;;5046105;28;20206;-32
2023/01/08 02:37:46;;;;;;;4.03;1.37;;;11.60;99.90;;;;;;5045941;28;20208;-33
2023/01/08 02:40:22;;;;;;;5.70;1.30;;;11.60;99.90;;;;;;5045946;28;20922;-32
2023/01/08 02:42:49;;;;;;;2.63;1.17;;;11.60;99.90;;;;;;5045969;28;20303;-32
2023/01/08 02:45:28;;;;;;;4.27;1.40;;;11.60;99.90;;;;;;5045960;28;20193;-32
2023/01/08 02:48:28;;;;;;;2.47;1.07;;;11.60;99.90;;;;;;5045924;28;20196;-32
2023/01/08 02:51:16;;;;;;;5.30;1.40;;;11.60;99.90;;;;;;5045829;28;20204;-32
2023/01/08 02:53:47;;;;;;;3.23;1.63;;;11.60;99.90;;;;;;5046115;28;20258;-33
2023/01/08 02:56:19;;;;;;;5.00;1.50;;;11.60;99.90;;;;;;5046249;28;20204;-33
2023/01/08 02:58:48;;;;;;;4.27;1.50;;;11.70;99.90;;;;;;5046482;28;20287;-32
2023/01/08 03:01:22;;;;;;;3.83;1.40;;;11.70;99.90;;;;;;5049641;28;20293;-33
2023/01/08 03:03:55;;;;;;;4.20;1.77;;;11.70;99.90;;;;;;5049441;28;20291;-33
2023/01/08 03:06:25;;;;;;;3.60;1.60;;;11.70;99.90;;;;;;5049543;28;20189;-32
2023/01/08 03:08:56;;;;;;;6.00;1.73;;;11.70;99.90;;;;;;5049236;28;20754;-32
2023/01/08 03:11:27;;;;;;;4.13;1.93;;;11.70;99.90;;;;;;5032226;28;20724;-32
2023/01/08 03:14:13;;;;;;;3.57;1.77;;;11.70;99.90;;;;;;5049684;28;20535;-33
2023/01/08 03:16:45;;;;;;;6.27;2.40;;;11.80;99.90;;;;;;5049387;28;20195;-33
2023/01/08 03:19:24;;;;;;;3.50;2.00;;;11.80;99.90;;;;;;5049378;28;20639;-33
2023/01/08 03:21:52;;;;;;;5.47;1.50;;;11.80;99.90;;;;;;5049205;28;20196;-33
2023/01/08 03:24:24;;;;;;;4.70;1.30;;;11.90;99.90;;;;;;5047921;28;20207;-32
2023/01/08 03:26:59;;;;;;;3.23;1.20;;;11.90;99.90;;;;;;5049283;28;20250;-32
2023/01/08 03:29:29;;;;;;;3.83;1.07;;;11.80;99.90;;;;;;5049260;28;20246;-32
2023/01/08 03:32:03;;;;;;;2.27;0.87;;;11.80;99.90;;;;;;5049037;28;20274;-33
2023/01/08 03:34:36;;;;;;;2.53;0.87;;;11.80;99.90;;;;;;5047484;28;20294;-33
2023/01/08 03:37:06;;;;;;;3.73;0.90;;;11.80;99.90;;;;;;5048921;28;20204;-32
2023/01/08 03:39:48;;;;;;;1.23;0.60;;;11.70;99.90;;;;;;5048933;28;20224;-32
2023/01/08 03:42:17;;;;;;;2.37;0.73;;;11.70;99.90;;;;;;5049804;28;20701;-33
2023/01/08 03:44:45;;;;;;;2.60;1.10;;;11.70;99.90;;;;;;5048483;28;20236;-33
2023/01/08 03:47:18;;;;;;;1.97;0.77;;;11.60;99.90;;;;;;5048786;28;20192;-32
2023/01/08 03:49:50;;;;;;;2.63;0.90;;;11.60;99.90;;;;;;5048943;28;20208;-33
2023/01/08 03:52:29;;;;;;;2.23;0.97;;;11.60;99.90;;;;;;5048405;28;20777;-33
2023/01/08 03:55:01;;;;;;;1.10;0.57;;;11.60;99.90;;;;;;5048333;28;20616;-32
2023/01/08 03:57:28;;;;;;;3.07;0.73;;;11.50;99.90;;;;;;5049276;28;20220;-32
2023/01/08 04:00:00;;;;;;;2.97;1.17;;;11.50;99.90;;;;;;5048561;28;20418;-33
2023/01/08 04:02:27;;;;;;;2.60;0.50;;;11.50;99.90;;;;;;5048517;28;20200;-33
2023/01/08 04:04:57;;;;;;;2.70;0.67;;;11.50;99.90;;;;;;5048533;28;20730;-32
2023/01/08 04:07:28;;;;;;;2.50;0.80;;;11.40;99.90;;;;;;5046790;28;20200;-32
2023/01/08 04:09:55;;;;;;;3.50;0.70;;;11.40;99.90;;;;;;5047283;28;20269;-32
2023/01/08 04:12:23;;;;;;;2.43;0.60;;;11.30;99.90;;;;;;5048161;28;20288;-33
2023/01/08 04:14:50;;;;;;;4.03;1.07;;;11.30;99.90;;;;;;5048205;28;20744;-33
2023/01/08 04:17:22;;;;;;;4.93;0.93;;;11.30;99.90;;;;;;5048206;28;20196;-33
2023/01/08 04:19:49;;;;;;;2.50;0.60;;;11.30;99.90;;;;;;5048162;28;20224;-32
2023/01/08 04:22:18;;;;;;;5.93;0.73;;;11.20;99.90;;;;;;5047878;28;20203;-32
2023/01/08 04:24:45;;;;;;;2.53;1.00;;;11.20;99.90;;;;;;5046973;28;20579;-32
2023/01/08 04:27:15;;;;;;;5.60;0.80;;;11.20;99.90;;;;;;5047977;28;20212;-32
2023/01/08 04:29:42;;;;;;;3.47;0.90;;;11.20;99.90;;;;;;5048267;28;20772;-33
2023/01/08 04:32:10;;;;;;;2.30;0.60;;;11.20;99.90;;;;;;5046321;28;20207;-32
2023/01/08 04:34:39;;;;;;;2.60;0.73;;;11.10;99.90;;;;;;5047863;28;20758;-32
2023/01/08 04:37:06;;;;;;;4.73;1.13;;;11.10;99.90;;;;;;5048007;28;20232;-33
2023/01/08 04:39:34;;;;;;;3.33;0.80;;;11.10;99.90;;;;;;5029921;28;20211;-31
2023/01/08 04:42:01;;;;;;;3.63;1.00;;;11.10;99.90;;;;;;5047972;28;20287;-33
2023/01/08 04:44:28;;;;;;;3.63;1.27;;;11.10;99.90;;;;;;5047801;28;20299;-32
2023/01/08 04:47:00;;;;;;;5.33;1.00;;;11.10;99.90;;;;;;5047873;28;20291;-33
2023/01/08 04:49:29;;;;;;;2.33;0.63;;;11.10;99.90;;;;;;5047766;28;20192;-33
2023/01/08 04:51:59;;;;;;;5.73;0.93;;;11.10;99.90;;;;;;5047380;28;20282;-32
2023/01/08 04:54:26;;;;;;;4.13;0.77;;;11.00;99.90;;;;;;5046403;28;20199;-33
2023/01/08 04:56:55;;;;;;;3.43;1.03;;;11.00;99.90;;;;;;5047587;28;20201;-31
2023/01/08 04:59:27;;;;;;;4.47;1.00;;;11.00;99.90;;;;;;5047385;28;20671;-31
2023/01/08 05:01:55;;;;;;;5.70;0.90;;;10.90;99.90;;;;;;5046810;28;20212;-31
2023/01/08 05:04:22;;;;;;;3.70;0.93;;;10.90;99.90;;;;;;5047018;28;20216;-31
2023/01/08 05:06:52;;;;;;;5.67;1.10;;;10.90;99.90;;;;;;5046898;28;20286;-31
2023/01/08 05:09:19;;;;;;;3.23;0.77;;;10.90;99.90;;;;;;5046631;28;20204;-31
2023/01/08 05:11:49;;;;;;;2.80;0.80;;;10.80;99.90;;;;;;5047262;28;20647;-31
2023/01/08 05:14:16;;;;;;;5.30;1.10;;;10.80;99.90;;;;;;5046947;28;20196;-31
2023/01/08 05:16:44;;;;;;;6.87;1.37;;;10.80;99.90;;;;;;5046890;28;20256;-31
2023/01/08 05:19:13;;;;;;;4.20;1.07;;;10.70;99.90;;;;;;5047141;28;20196;-31
2023/01/08 05:21:40;;;;;;;4.17;1.10;;;10.70;99.90;;;;;;5046336;28;20710;-31
2023/01/08 05:24:08;;;;;;;4.83;1.10;;;10.70;99.90;;;;;;5047029;28;20218;-31
2023/01/08 05:26:35;;;;;;;3.07;1.03;;;10.60;99.90;;;;;;5047203;28;20655;-31
2023/01/08 05:29:02;;;;;;;3.93;0.90;;;10.60;99.90;;;;;;5046829;28;20258;-31
2023/01/08 05:31:32;;;;;;;6.07;1.03;;;10.50;99.90;;;;;;5046319;28;20200;-31
2023/01/08 05:33:59;;;;;;;5.43;0.90;;;10.50;99.90;;;;;;5046740;28;20590;-31
2023/01/08 05:36:29;;;;;;;6.00;1.17;;;10.50;99.90;;;;;;5046181;28;20299;-31
2023/01/08 05:38:57;;;;;;;5.10;0.90;;;10.40;99.90;;;;;;5044551;28;20242;-31
2023/01/08 05:41:24;;;;;;;6.70;1.97;;;10.30;99.90;;;;;;5044501;28;20216;-31
2023/01/08 05:43:51;;;;;;;5.20;1.03;;;10.30;99.90;;;;;;5044474;28;20571;-31
2023/01/08 05:46:21;;;;;;;3.27;0.83;;;10.30;99.90;;;;;;5046381;28;20208;-31
2023/01/08 05:48:48;;;;;;;4.90;1.10;;;10.20;99.90;;;;;;5045922;28;20208;-31
2023/01/08 05:51:18;;;;;;;3.03;0.80;;;10.20;99.90;;;;;;5045885;28;20322;-31
2023/01/08 05:53:45;;;;;;;4.53;1.10;;;10.20;99.90;;;;;;5045773;28;20575;-31
2023/01/08 05:56:14;;;;;;;4.47;0.70;;;10.10;99.90;;;;;;5045982;28;20208;-31
2023/01/08 05:58:42;;;;;;;4.37;0.93;;;10.10;99.90;;;;;;5045780;28;20627;-31
2023/01/08 06:01:11;;;;;;;4.47;1.13;;;10.10;99.90;;;;;;5046372;28;20216;-31
2023/01/08 06:03:39;;;;;;;5.47;1.00;;;10.00;99.90;;;;;;5046443;28;20189;-31
2023/01/08 06:06:10;;;;;;;6.10;1.27;;;10.00;99.90;;;;;;5046510;28;20208;-31
2023/01/08 06:08:41;;;;;;;3.33;1.10;;;9.90;99.90;;;;;;5045049;28;20204;-31
2023/01/08 06:11:12;;;;;;;7.23;1.20;;;9.90;99.90;;;;;;5046188;28;20246;-31
2023/01/08 06:13:42;;;;;;;5.67;1.10;;;9.90;99.90;;;;;;5046308;28;20216;-31
2023/01/08 06:16:09;;;;;;;6.93;1.43;;;9.90;99.90;;;;;;5046066;28;20196;-31
2023/01/08 06:18:36;;;;;;;8.27;1.27;;;9.80;99.90;;;;;;5046488;28;20569;-31
2023/01/08 06:21:08;;;;;;;6.47;1.53;;;9.80;99.90;;;;;;5046042;28;20224;-31
2023/01/08 06:23:35;;;;;;;4.17;1.20;;;9.80;99.90;;;;;;5044979;28;20608;-31
2023/01/08 06:26:07;;;;;;;6.03;1.37;;;9.80;99.90;;;;;;5046153;28;20624;-31
2023/01/08 06:28:37;;;;;;;6.33;1.83;;;9.80;99.90;;;;;;5046120;28;20216;-31
2023/01/08 06:31:06;;;;;;;3.13;1.13;;;9.80;99.90;;;;;;5044922;28;20219;-31
2023/01/08 06:33:33;;;;;;;6.37;1.30;;;9.70;99.90;;;;;;5048329;28;20585;-31
2023/01/08 06:36:04;;;;;;;4.93;1.47;;;9.70;99.90;;;;;;5050087;28;20243;-31
2023/01/08 06:38:34;;;;;;;12.23;2.50;;;9.70;99.90;;;;;;5050028;28;20211;-32
2023/01/08 06:41:05;;;;;;;7.57;1.50;;;9.70;99.90;;;;;;5048506;28;20219;-31
2023/01/08 06:43:38;;;;;;;8.27;1.73;;;9.70;99.90;;;;;;5050032;28;20592;-31
2023/01/08 06:46:06;;;;;;;5.20;1.53;;;9.70;99.90;;;;;;5048562;28;20200;-31
2023/01/08 06:48:34;;;;;;;5.57;1.70;;;9.70;99.90;;;;;;5049762;28;20235;-31
2023/01/08 06:51:04;;;;;;;4.70;1.60;;;9.70;99.90;;;;;;5049346;28;20212;-31
2023/01/08 06:53:32;;;;;;;6.07;1.33;;;9.70;99.90;;;;;;5048275;28;20208;-32
2023/01/08 06:56:02;;;;;;;9.43;2.00;;;9.70;99.90;;;;;;5049702;28;20672;-31
2023/01/08 06:58:32;;;;;;;7.87;1.50;;;9.70;99.90;;;;;;5049409;28;20755;-31
2023/01/08 07:01:01;;;;;;;7.03;1.50;;;9.70;99.90;;;;;;5049584;28;20248;-31
2023/01/08 07:03:28;;;;;;;6.10;1.57;;;9.70;99.90;;;;;;5048026;28;20273;-31
2023/01/08 07:05:56;;;;;;;9.47;1.67;;;9.70;99.90;;;;;;5049618;28;20221;-31
2023/01/08 07:08:23;;;;;;;10.20;1.67;;;9.70;99.90;;;;;;5049327;28;20287;-31
2023/01/08 07:10:50;;;;;;;4.80;1.63;;;9.70;99.90;;;;;;5048882;28;20296;-31
2023/01/08 07:13:18;;;;;;;7.23;1.67;;;9.70;99.90;;;;;;5048977;28;20265;-31
2023/01/08 07:15:47;;;;;;;5.27;1.17;;;9.70;99.90;;;;;;5048588;28;20302;-31
2023/01/08 07:18:14;;;;;;;4.23;1.53;;;9.70;99.90;;;;;;5048940;28;20742;-31
2023/01/08 07:20:46;;;;;;;5.77;1.57;;;9.70;99.90;;;;;;5048598;28;20251;-31
2023/01/08 07:23:13;;;;;;;5.60;1.70;;;9.70;99.90;;;;;;5048785;28;20192;-31
2023/01/08 07:25:46;;;;;;;5.73;1.47;;;9.70;99.90;;;;;;5047406;28;20307;-31
2023/01/08 07:28:15;;;;;;;5.10;1.37;;;9.70;99.90;;;;;;5048646;28;20282;-31
2023/01/08 07:30:45;;;;;;;5.03;1.33;;;9.70;99.90;;;;;;5048858;28;20675;-31
2023/01/08 07:33:14;;;;;;;6.50;1.23;;;9.80;99.90;;;;;;5031092;28;20216;-31
2023/01/08 07:35:42;;;;;;;6.20;1.70;;;9.80;99.90;;;;;;5048876;28;20208;-31
2023/01/08 07:38:09;;;;;;;7.63;1.87;;;9.80;99.90;;;;;;5047023;28;20663;-31
2023/01/08 07:40:38;;;;;;;4.43;1.10;;;9.80;99.90;;;;;;5047781;28;20232;-31
2023/01/08 07:43:06;;;;;;;7.00;1.73;;;9.80;99.90;;;;;;5048950;28;20246;-31
2023/01/08 07:45:35;;;;;;;7.23;1.80;;;9.80;99.90;;;;;;5047352;28;20200;-31
2023/01/08 07:48:05;;;;;;;8.23;1.53;;;9.90;99.90;;;;;;5048542;28;20250;-31
2023/01/08 07:50:32;;;;;;;7.00;1.80;;;9.90;99.90;;;;;;5046425;28;20587;-31
2023/01/08 07:53:00;;;;;;;7.63;1.83;;;9.90;99.90;;;;;;5047877;28;20337;-31
2023/01/08 07:55:29;;;;;;;7.77;1.70;;;9.90;99.90;;;;;;5048464;28;20204;-31
2023/01/08 07:57:56;;;;;;;4.87;1.60;;;9.90;99.90;;;;;;5047965;28;20218;-31
2023/01/08 08:00:24;;;;;;;9.10;1.67;;;10.00;99.90;;;;;;5047862;28;20568;-31
2023/01/08 08:02:51;;;;;;;6.37;1.87;;;10.00;99.90;;;;;;5047554;28;20671;-31
2023/01/08 08:05:21;;;;;;;7.20;1.90;;;10.00;99.90;;;;;;5048530;28;20408;-31
2023/01/08 08:07:48;;;;;;;8.67;2.03;;;10.10;99.90;;;;;;5047834;28;20698;-31
2023/01/08 08:10:18;;;;;;;5.60;1.63;;;10.10;99.90;;;;;;5047721;28;20694;-31
2023/01/08 08:12:47;;;;;;;7.43;1.87;;;10.10;99.90;;;;;;5047570;28;20325;-31
2023/01/08 08:15:19;;;;;;;7.80;2.13;;;10.10;99.90;;;;;;5047518;28;20236;-31
2023/01/08 08:17:49;;;;;;;4.93;1.87;;;10.20;99.90;;;;;;5046465;28;20193;-31
2023/01/08 08:20:18;;;;;;;4.63;1.47;;;10.20;99.90;;;;;;5046138;28;20749;-31
2023/01/08 08:22:45;;;;;;;5.43;1.50;;;10.20;99.90;;;;;;5047867;28;20236;-31
2023/01/08 08:25:14;;;;;;;6.17;1.80;;;10.20;99.90;;;;;;5047894;28;20202;-31
2023/01/08 08:27:44;;;;;;;8.70;1.70;;;10.30;99.90;;;;;;5047548;28;20686;-31
2023/01/08 08:30:12;;;;;;;6.30;1.93;;;10.30;99.90;;;;;;5045779;28;20287;-31
2023/01/08 08:32:44;;;;;;;9.60;2.00;;;10.40;99.90;;;;;;5047277;28;20208;-31
2023/01/08 08:35:13;;;;;;;7.20;1.70;;;10.40;99.90;;;;;;5047436;28;20200;-30
2023/01/08 08:37:41;;;;;;;5.73;1.40;;;10.40;99.90;;;;;;5047525;28;20327;-30
2023/01/08 08:40:11;;;;;;;5.77;1.60;;;10.50;99.90;;;;;;5047688;28;20266;-30
2023/01/08 08:42:38;;;;;;;6.50;1.67;;;10.50;99.90;;;;;;5046296;28;20305;-30
2023/01/08 08:45:06;;;;;;;5.07;1.40;;;10.50;99.90;;;;;;5047850;28;20314;-30
2023/01/08 08:47:35;;;;;;;5.37;1.80;;;10.50;99.90;;;;;;5047861;28;20200;-30
2023/01/08 08:50:06;;;;;;;7.80;2.20;;;10.60;99.90;;;;;;5047695;28;20610;-30
2023/01/08 08:52:40;;;;;;;7.47;1.30;;;10.60;99.90;;;;;;5047166;28;20245;-30
2023/01/08 08:55:14;;;;;;;5.40;1.30;;;10.60;99.90;;;;;;5047273;28;20212;-30
2023/01/08 08:57:46;;;;;;;2.70;1.30;;;10.70;99.90;;;;;;5047447;28;20643;-30
2023/01/08 09:00:19;;;;;;;4.80;1.20;;;10.70;99.90;;;;;;5030107;28;20273;-30
2023/01/08 09:02:51;;;;;;;4.30;0.90;;;10.70;99.90;;;;;;5047129;28;20636;-30
2023/01/08 09:05:18;;;;;;;4.30;0.90;;;10.70;99.90;;;;;;5045731;28;20212;-30
2023/01/08 09:07:50;;;;;;;5.40;0.87;;;10.80;99.90;;;;;;5046154;28;20705;-30
2023/01/08 09:10:17;;;;;;;2.70;0.80;;;10.80;99.90;;;;;;5047524;28;20575;-30
2023/01/08 09:12:45;;;;;;;2.40;0.93;;;10.80;99.90;;;;;;5029008;28;20734;-30
2023/01/08 09:15:12;;;;;;;3.53;0.87;;;10.80;99.90;;;;;;5047466;28;20216;-30
2023/01/08 09:17:39;;;;;;;2.03;0.40;;;10.80;99.90;;;;;;5045754;28;20319;-30
2023/01/08 09:20:07;;;;;;;1.20;0.60;;;10.80;99.90;;;;;;5045328;28;20199;-30
2023/01/08 09:22:34;;;;;;;0.57;0.33;;;10.80;99.90;;;;;;5046859;28;20224;-30
2023/01/08 09:25:01;;;;;;;2.53;0.60;;;10.80;99.90;;;;;;5046777;28;20201;-30
2023/01/08 09:27:28;;;;;;;1.27;0.40;;;10.80;99.90;;;;;;5047260;28;20280;-30
2023/01/08 09:29:58;;;;;;;0.83;0.30;;;10.80;99.90;;;;;;5046709;28;20200;-30
2023/01/08 09:32:25;;;;;;;1.77;0.30;;;10.80;99.90;;;;;;5046162;28;20212;-30
2023/01/08 09:34:55;;;;;;;1.03;0.40;;;10.80;99.90;;;;;;5046244;28;20219;-30
2023/01/08 09:37:24;;;;;;;0.30;0.30;;;10.80;99.90;;;;;;5044740;28;20228;-31
2023/01/08 09:39:54;;;;;;;0.20;0.20;;;10.90;99.90;;;;;;5046493;28;20293;-31
2023/01/08 09:42:30;;;;;;;1.30;0.20;;;10.90;99.90;;;;;;5045969;28;20337;-31
2023/01/08 09:45:00;;;;;;;0.23;0.23;;;10.90;99.90;;;;;;5045845;28;20213;-31
2023/01/08 09:47:38;;;;;;;1.37;0.40;;;10.80;99.90;;;;;;5046431;28;20204;-31
2023/01/08 09:50:10;;;;;;;0.30;0.17;;;10.90;99.90;;;;;;5046538;28;20626;-31
2023/01/08 09:52:40;;;;;;;1.57;0.30;;;10.90;99.90;;;;;;5045560;28;20289;-30
2023/01/08 09:55:14;;;;;;;0.60;0.30;;;10.90;99.90;;;;;;5044167;28;20211;-30
2023/01/08 09:57:43;;;;;;;0.40;0.30;;;10.90;99.90;;;;;;5045655;28;20663;-30
2023/01/08 10:00:24;;;;;;;1.07;0.37;;;10.90;99.90;;;;;;5045483;28;20200;-31
2023/01/08 10:02:53;;;;;;;2.20;1.00;;;10.90;99.90;;;;;;5045786;28;20230;-31
2023/01/08 10:05:20;;;;;;;4.47;0.63;;;10.90;99.90;;;;;;5045715;28;20697;-31
2023/01/08 10:07:50;;;;;;;1.73;0.53;;;10.90;99.90;;;;;;5045611;28;20235;-31
2023/01/08 10:10:31;;;;;;;2.70;0.70;;;10.90;99.90;;;;;;5045107;28;20226;-30
2023/01/08 10:13:01;;;;;;;3.13;1.00;;;10.90;99.90;;;;;;5044866;28;20539;-30
2023/01/08 10:15:30;;;;;;;2.27;0.80;;;10.90;99.90;;;;;;5046353;28;20270;-30
2023/01/08 10:18:10;;;;;;;2.23;0.70;;;11.00;99.90;;;;;;5046328;28;20236;-30
2023/01/08 10:20:39;;;;;;;3.17;0.87;;;11.00;99.90;;;;;;5045882;28;20204;-31
2023/01/08 10:23:17;;;;;;;2.20;0.90;;;10.90;99.90;;;;;;5045510;28;20714;-31
2023/01/08 10:25:56;;;;;;;2.23;0.97;;;11.00;99.90;;;;;;5044300;28;20559;-31
2023/01/08 10:28:29;;;;;;;1.50;0.57;;;11.00;99.90;;;;;;5046736;28;20647;-30
2023/01/08 10:31:05;;;;;;;3.83;0.90;;;11.00;99.90;;;;;;5043945;28;20189;-31
2023/01/08 10:33:45;;;;;;;3.00;0.90;;;11.10;99.90;;;;;;5045755;28;20277;-31
2023/01/08 10:36:22;;;;;;;1.93;0.70;;;11.10;99.90;;;;;;5046178;28;20538;-31
2023/01/08 10:38:58;;;;;;;2.93;0.83;;;11.10;99.90;;;;;;5046716;28;20223;-30
2023/01/08 10:41:28;;;;;;;2.30;0.80;;;11.10;99.90;;;;;;5044767;28;20620;-31
2023/01/08 10:43:57;;;;;;;4.20;1.20;;;11.20;99.90;;;;;;5046125;28;20254;-30
2023/01/08 10:46:39;;;;;;;2.50;0.70;;;11.20;99.90;;;;;;5046049;28;20246;-30
2023/01/08 10:49:19;;;;;;;1.67;0.67;;;11.20;99.90;;;;;;5045676;28;20200;-30
2023/01/08 10:51:52;;;;;;;2.97;0.93;;;11.30;99.90;;;;;;5045232;28;20244;-31
2023/01/08 10:54:32;;;;;;;4.00;0.80;;;11.30;99.90;;;;;;5045283;28;20232;-30
2023/01/08 10:56:59;;;;;;;1.47;0.60;;;11.40;99.90;;;;;;5045612;28;20674;-31
2023/01/08 10:59:31;;;;;;;1.47;0.50;;;11.50;99.90;;;;;;5045776;28;20627;-30
2023/01/08 11:01:58;;;;;;;3.00;0.77;;;11.50;99.90;;;;;;5045671;28;20734;-30
2023/01/08 11:04:32;;;;;;;2.67;0.70;;;11.50;99.90;;;;;;5046219;28;20257;-30
2023/01/08 11:07:01;;;;;;;3.83;0.70;;;11.50;99.90;;;;;;5045911;28;20197;-31
2023/01/08 11:09:38;;;;;;;2.43;0.70;;;11.60;99.90;;;;;;5045705;28;20239;-31
2023/01/08 11:12:31;;;;;;;1.83;0.77;;;11.60;99.90;;;;;;5045777;28;20255;-30
2023/01/08 11:15:04;;;;;;;2.07;0.87;;;11.70;99.90;;;;;;5045661;28;20216;-30
2023/01/08 11:17:33;;;;;;;3.60;1.00;;;11.70;99.90;;;;;;5044050;28;20674;-30
2023/01/08 11:20:27;;;;;;;2.90;0.63;;;11.70;99.90;;;;;;5047886;28;20633;-30
2023/01/08 11:23:20;;;;;;;0.77;0.50;;;11.80;99.90;;;;;;5048998;28;20349;-30
2023/01/08 11:26:08;;;;;;;1.90;0.70;;;11.80;99.90;;;;;;5049670;28;20746;-31
2023/01/08 11:29:01;;;;;;;3.10;0.87;;;11.80;99.90;;;;;;5047468;28;20316;-30
2023/01/08 11:31:37;;;;;;;2.97;0.67;;;11.80;99.90;;;;;;5047424;28;20207;-30
2023/01/08 11:34:18;;;;;;;2.60;1.00;;;11.80;99.90;;;;;;5049157;28;20203;-30
2023/01/08 11:36:56;;;;;;;2.70;0.77;;;11.80;99.90;;;;;;5048691;28;20204;-30
2023/01/08 11:39:27;;;;;;;1.80;0.77;;;11.80;99.90;;;;;;5047633;28;20206;-31
2023/01/08 11:42:20;;;;;;;5.13;1.20;;;11.80;99.90;;;;;;5049277;28;20317;-30
2023/01/08 11:45:08;;;;;;;5.13;0.83;;;11.80;99.90;;;;;;5049013;28;20232;-30
2023/01/08 11:47:48;;;;;;;6.37;1.03;;;11.80;99.90;;;;;;5049310;28;20212;-30
2023/01/08 11:50:34;;;;;;;4.83;0.80;;;11.80;99.90;;;;;;5048690;28;20228;-30
2023/01/08 11:53:58;;;;;;;4.80;1.30;;;11.80;99.90;;;;;;5048572;28;20231;-30
2023/01/08 11:56:31;;;;;;;5.23;1.07;;;11.70;99.90;;;;;;5049611;28;20213;-30
2023/01/08 11:59:19;;;;;;;6.70;0.93;;;11.70;99.90;;;;;;5048242;28;20433;-30
2023/01/08 12:01:53;;;;;;;4.13;1.00;;;11.70;99.90;;;;;;5047185;28;20335;-31
2023/01/08 12:04:31;;;;;;;3.80;1.00;;;11.70;99.90;;;;;;5048586;28;20208;-31
2023/01/08 12:07:51;;;;;;;6.50;1.30;;;11.70;99.90;;;;;;5048531;28;20265;-31
2023/01/08 12:10:27;;;;;;;6.23;0.90;;;11.70;99.90;;;;;;5055329;28;20200;-31
2023/01/08 12:13:03;;;;;;;2.20;0.83;;;11.70;99.90;;;;;;5048306;28;20235;-31
2023/01/08 12:15:48;;;;;;;6.33;1.03;;;11.70;99.90;;;;;;5048037;28;20230;-31
2023/01/08 12:18:45;;;;;;;4.10;1.00;;;11.70;99.90;;;;;;5048318;28;20208;-32
2023/01/08 12:21:31;;;;;;;7.07;1.10;;;11.70;99.90;;;;;;5047698;28;20593;-31
2023/01/08 12:24:22;;;;;;;3.80;1.20;;;11.70;99.90;;;;;;5046699;28;20254;-31
2023/01/08 12:26:53;;;;;;;4.13;1.13;;;11.60;99.90;;;;;;5048110;28;20212;-31
2023/01/08 12:29:40;;;;;;;5.90;1.00;;;11.60;99.90;;;;;;5047456;28;20212;-31
2023/01/08 12:32:36;;;;;;;4.77;1.10;;;11.70;99.90;;;;;;5045675;28;20204;-31
2023/01/08 12:35:14;;;;;;;6.03;1.10;;;11.70;99.90;;;;;;5046209;28;20219;-31
2023/01/08 12:37:51;;;;;;;7.20;1.27;;;11.70;99.90;;;;;;5047660;28;20267;-31
2023/01/08 12:40:24;;;;;;;4.70;1.10;;;11.80;99.90;;;;;;5047706;28;20214;-32
2023/01/08 12:42:57;;;;;;;4.57;0.97;;;11.80;99.90;;;;;;5048007;28;20224;-32
2023/01/08 12:45:36;;;;;;;6.57;1.00;;;11.80;99.90;;;;;;5047696;28;20195;-31
2023/01/08 12:48:11;;;;;;;5.70;1.07;;;11.80;99.90;;;;;;5047925;28;20208;-32
2023/01/08 12:50:51;;;;;;;5.63;0.97;;;11.90;99.90;;;;;;5047414;28;20206;-32
2023/01/08 12:53:31;;;;;;;4.13;0.90;;;11.90;99.90;;;;;;5047742;28;20200;-32
2023/01/08 12:56:32;;;;;;;4.10;1.00;;;11.90;99.90;;;;;;5045783;28;20701;-32
2023/01/08 12:59:19;;;;;;;4.30;0.87;;;11.90;99.90;;;;;;5048082;28;20208;-30
2023/01/08 13:01:49;;;;;;;4.77;1.30;;;11.90;99.90;;;;;;5045995;28;20219;-30
2023/01/08 13:04:18;;;;;;;2.40;0.90;;;12.00;99.90;;;;;;5047824;28;20676;-30
2023/01/08 13:07:00;;;;;;;5.67;0.90;;;12.00;99.90;;;;;;5045593;28;20215;-30
2023/01/08 13:09:31;;;;;;;5.90;0.90;;;12.10;99.90;;;;;;5045512;28;20204;-30
2023/01/08 13:11:59;;;;;;;3.83;0.97;;;12.00;99.90;;;;;;5046234;28;20688;-30
2023/01/08 13:14:41;;;;;;;4.13;1.00;;;12.10;99.90;;;;;;5046008;28;20687;-30
2023/01/08 13:17:18;;;;;;;3.63;1.00;;;12.10;99.90;;;;;;5045683;28;20299;-30